sensor_id;sensor_type;location;lat;lon;timestamp;P1;durP1;ratioP1;P2;durP2;ratioP2
65244;SDS011;51846;48.692;2.382;2023-11-21T00:02:24;10.95;;;3.53;;
65244;SDS011;51846;48.692;2.382;2023-11-21T00:04:50;11.73;;;3.85;;
65244;SDS011;51846;48.692;2.382;2023-11-21T00:07:15;10.52;;;3.78;;
65244;SDS011;51846;48.692;2.382;2023-11-21T00:09:41;10.02;;;3.72;;
65244;SDS011;51846;48.692;2.382;2023-11-21T00:12:06;11.25;;;3.90;;
65244;SDS011;51846;48.692;2.382;2023-11-21T00:14:36;10.95;;;3.88;;
65244;SDS011;51846;48.692;2.382;2023-11-21T00:17:04;12.65;;;4.30;;
65244;SDS011;51846;48.692;2.382;2023-11-21T00:19:31;9.52;;;4.05;;
65244;SDS011;51846;48.692;2.382;2023-11-21T00:21:56;9.63;;;3.70;;
65244;SDS011;51846;48.692;2.382;2023-11-21T00:24:23;11.20;;;4.10;;
65244;SDS011;51846;48.692;2.382;2023-11-21T00:26:49;7.68;;;3.60;;
65244;SDS011;51846;48.692;2.382;2023-11-21T00:29:15;14.40;;;4.07;;
65244;SDS011;51846;48.692;2.382;2023-11-21T00:31:42;9.50;;;3.72;;
65244;SDS011;51846;48.692;2.382;2023-11-21T00:34:08;12.18;;;3.70;;
65244;SDS011;51846;48.692;2.382;2023-11-21T00:36:33;9.75;;;3.80;;
65244;SDS011;51846;48.692;2.382;2023-11-21T00:38:59;9.20;;;3.50;;
65244;SDS011;51846;48.692;2.382;2023-11-21T00:41:24;10.02;;;3.83;;
65244;SDS011;51846;48.692;2.382;2023-11-21T00:43:52;14.60;;;4.18;;
65244;SDS011;51846;48.692;2.382;2023-11-21T00:46:18;7.75;;;3.65;;
65244;SDS011;51846;48.692;2.382;2023-11-21T00:48:44;8.57;;;3.53;;
65244;SDS011;51846;48.692;2.382;2023-11-21T00:51:09;11.27;;;3.33;;
65244;SDS011;51846;48.692;2.382;2023-11-21T00:53:35;11.95;;;3.60;;
65244;SDS011;51846;48.692;2.382;2023-11-21T00:56:00;8.02;;;3.67;;
65244;SDS011;51846;48.692;2.382;2023-11-21T00:58:26;11.05;;;3.65;;
65244;SDS011;51846;48.692;2.382;2023-11-21T01:00:51;9.85;;;3.42;;
65244;SDS011;51846;48.692;2.382;2023-11-21T01:03:17;10.00;;;3.45;;
65244;SDS011;51846;48.692;2.382;2023-11-21T01:05:43;11.32;;;3.33;;
65244;SDS011;51846;48.692;2.382;2023-11-21T01:08:08;10.80;;;3.22;;
65244;SDS011;51846;48.692;2.382;2023-11-21T01:10:34;12.02;;;3.70;;
65244;SDS011;51846;48.692;2.382;2023-11-21T01:13:00;7.38;;;3.45;;
65244;SDS011;51846;48.692;2.382;2023-11-21T01:15:25;8.95;;;3.40;;
65244;SDS011;51846;48.692;2.382;2023-11-21T01:17:53;12.32;;;4.03;;
65244;SDS011;51846;48.692;2.382;2023-11-21T01:20:19;13.60;;;3.42;;
65244;SDS011;51846;48.692;2.382;2023-11-21T01:22:44;8.23;;;3.25;;
65244;SDS011;51846;48.692;2.382;2023-11-21T01:25:10;11.32;;;3.20;;
65244;SDS011;51846;48.692;2.382;2023-11-21T01:27:36;7.97;;;3.10;;
65244;SDS011;51846;48.692;2.382;2023-11-21T01:30:04;8.48;;;3.30;;
65244;SDS011;51846;48.692;2.382;2023-11-21T01:32:32;8.52;;;3.20;;
65244;SDS011;51846;48.692;2.382;2023-11-21T01:34:57;7.05;;;2.95;;
65244;SDS011;51846;48.692;2.382;2023-11-21T01:37:24;10.00;;;2.90;;
65244;SDS011;51846;48.692;2.382;2023-11-21T01:39:52;8.25;;;2.80;;
65244;SDS011;51846;48.692;2.382;2023-11-21T01:42:18;9.60;;;3.20;;
65244;SDS011;51846;48.692;2.382;2023-11-21T01:44:43;10.07;;;3.00;;
65244;SDS011;51846;48.692;2.382;2023-11-21T01:47:09;7.03;;;2.97;;
65244;SDS011;51846;48.692;2.382;2023-11-21T01:49:34;9.25;;;3.75;;
65244;SDS011;51846;48.692;2.382;2023-11-21T01:52:00;10.52;;;3.85;;
65244;SDS011;51846;48.692;2.382;2023-11-21T01:54:26;7.97;;;3.67;;
65244;SDS011;51846;48.692;2.382;2023-11-21T01:56:54;8.95;;;3.30;;
65244;SDS011;51846;48.692;2.382;2023-11-21T01:59:20;10.73;;;3.10;;
65244;SDS011;51846;48.692;2.382;2023-11-21T02:01:47;14.80;;;3.60;;
65244;SDS011;51846;48.692;2.382;2023-11-21T02:04:12;10.75;;;3.40;;
65244;SDS011;51846;48.692;2.382;2023-11-21T02:06:38;7.88;;;3.30;;
65244;SDS011;51846;48.692;2.382;2023-11-21T02:09:04;7.45;;;3.10;;
65244;SDS011;51846;48.692;2.382;2023-11-21T02:11:29;11.30;;;3.40;;
65244;SDS011;51846;48.692;2.382;2023-11-21T02:13:55;8.82;;;2.95;;
65244;SDS011;51846;48.692;2.382;2023-11-21T02:16:23;10.35;;;3.40;;
65244;SDS011;51846;48.692;2.382;2023-11-21T02:18:49;10.45;;;3.30;;
65244;SDS011;51846;48.692;2.382;2023-11-21T02:21:16;9.02;;;3.33;;
65244;SDS011;51846;48.692;2.382;2023-11-21T02:23:42;8.52;;;3.17;;
65244;SDS011;51846;48.692;2.382;2023-11-21T02:26:09;7.05;;;3.10;;
65244;SDS011;51846;48.692;2.382;2023-11-21T02:28:36;10.25;;;3.30;;
65244;SDS011;51846;48.692;2.382;2023-11-21T02:31:01;9.73;;;3.15;;
65244;SDS011;51846;48.692;2.382;2023-11-21T02:33:29;9.02;;;3.13;;
65244;SDS011;51846;48.692;2.382;2023-11-21T02:35:54;8.23;;;3.00;;
65244;SDS011;51846;48.692;2.382;2023-11-21T02:38:20;10.05;;;3.13;;
65244;SDS011;51846;48.692;2.382;2023-11-21T02:40:46;12.75;;;3.20;;
65244;SDS011;51846;48.692;2.382;2023-11-21T02:43:11;9.48;;;3.22;;
65244;SDS011;51846;48.692;2.382;2023-11-21T02:45:37;7.55;;;3.00;;
65244;SDS011;51846;48.692;2.382;2023-11-21T02:48:02;8.52;;;3.00;;
65244;SDS011;51846;48.692;2.382;2023-11-21T02:50:29;9.27;;;3.13;;
65244;SDS011;51846;48.692;2.382;2023-11-21T02:52:54;9.93;;;3.33;;
65244;SDS011;51846;48.692;2.382;2023-11-21T02:55:22;8.82;;;3.28;;
65244;SDS011;51846;48.692;2.382;2023-11-21T02:57:49;9.07;;;3.17;;
65244;SDS011;51846;48.692;2.382;2023-11-21T03:00:16;11.48;;;3.22;;
65244;SDS011;51846;48.692;2.382;2023-11-21T03:02:41;7.95;;;3.15;;
65244;SDS011;51846;48.692;2.382;2023-11-21T03:05:08;11.05;;;2.90;;
65244;SDS011;51846;48.692;2.382;2023-11-21T03:07:34;9.40;;;3.20;;
65244;SDS011;51846;48.692;2.382;2023-11-21T03:10:00;8.35;;;3.38;;
65244;SDS011;51846;48.692;2.382;2023-11-21T03:12:25;8.80;;;3.10;;
65244;SDS011;51846;48.692;2.382;2023-11-21T03:14:53;11.07;;;3.40;;
65244;SDS011;51846;48.692;2.382;2023-11-21T03:17:19;9.43;;;2.92;;
65244;SDS011;51846;48.692;2.382;2023-11-21T03:19:44;10.88;;;2.80;;
65244;SDS011;51846;48.692;2.382;2023-11-21T03:22:10;10.88;;;2.95;;
65244;SDS011;51846;48.692;2.382;2023-11-21T03:24:36;9.35;;;3.00;;
65244;SDS011;51846;48.692;2.382;2023-11-21T03:27:03;7.55;;;2.78;;
65244;SDS011;51846;48.692;2.382;2023-11-21T03:29:29;10.10;;;3.00;;
65244;SDS011;51846;48.692;2.382;2023-11-21T03:31:54;9.00;;;3.20;;
65244;SDS011;51846;48.692;2.382;2023-11-21T03:34:23;10.50;;;2.72;;
65244;SDS011;51846;48.692;2.382;2023-11-21T03:36:53;7.35;;;2.92;;
65244;SDS011;51846;48.692;2.382;2023-11-21T03:39:19;9.90;;;3.08;;
65244;SDS011;51846;48.692;2.382;2023-11-21T03:41:45;7.13;;;2.95;;
65244;SDS011;51846;48.692;2.382;2023-11-21T03:44:11;9.25;;;2.95;;
65244;SDS011;51846;48.692;2.382;2023-11-21T03:46:36;7.18;;;2.95;;
65244;SDS011;51846;48.692;2.382;2023-11-21T03:49:02;10.35;;;2.85;;
65244;SDS011;51846;48.692;2.382;2023-11-21T03:51:27;8.15;;;3.00;;
65244;SDS011;51846;48.692;2.382;2023-11-21T03:53:52;10.50;;;3.05;;
65244;SDS011;51846;48.692;2.382;2023-11-21T03:56:18;9.68;;;2.90;;
65244;SDS011;51846;48.692;2.382;2023-11-21T03:58:45;9.02;;;3.00;;
65244;SDS011;51846;48.692;2.382;2023-11-21T04:01:11;6.63;;;3.30;;
65244;SDS011;51846;48.692;2.382;2023-11-21T04:03:36;10.27;;;3.28;;
65244;SDS011;51846;48.692;2.382;2023-11-21T04:06:01;7.45;;;3.10;;
65244;SDS011;51846;48.692;2.382;2023-11-21T04:08:27;10.60;;;3.28;;
65244;SDS011;51846;48.692;2.382;2023-11-21T04:10:52;10.70;;;3.17;;
65244;SDS011;51846;48.692;2.382;2023-11-21T04:13:18;10.68;;;3.20;;
65244;SDS011;51846;48.692;2.382;2023-11-21T04:15:44;9.40;;;3.20;;
65244;SDS011;51846;48.692;2.382;2023-11-21T04:18:09;11.48;;;3.35;;
65244;SDS011;51846;48.692;2.382;2023-11-21T04:20:35;8.05;;;3.30;;
65244;SDS011;51846;48.692;2.382;2023-11-21T04:23:00;14.35;;;3.70;;
65244;SDS011;51846;48.692;2.382;2023-11-21T04:25:25;10.23;;;3.80;;
65244;SDS011;51846;48.692;2.382;2023-11-21T04:27:52;9.70;;;3.38;;
65244;SDS011;51846;48.692;2.382;2023-11-21T04:30:18;8.07;;;3.45;;
65244;SDS011;51846;48.692;2.382;2023-11-21T04:32:43;12.95;;;4.03;;
65244;SDS011;51846;48.692;2.382;2023-11-21T04:35:08;10.93;;;3.72;;
65244;SDS011;51846;48.692;2.382;2023-11-21T04:37:34;12.18;;;3.65;;
65244;SDS011;51846;48.692;2.382;2023-11-21T04:39:59;10.95;;;3.38;;
65244;SDS011;51846;48.692;2.382;2023-11-21T04:42:25;7.97;;;3.25;;
65244;SDS011;51846;48.692;2.382;2023-11-21T04:44:51;9.07;;;3.55;;
65244;SDS011;51846;48.692;2.382;2023-11-21T04:47:17;10.05;;;3.42;;
65244;SDS011;51846;48.692;2.382;2023-11-21T04:49:45;11.32;;;3.70;;
65244;SDS011;51846;48.692;2.382;2023-11-21T04:52:12;6.93;;;3.30;;
65244;SDS011;51846;48.692;2.382;2023-11-21T04:54:37;9.32;;;3.65;;
65244;SDS011;51846;48.692;2.382;2023-11-21T04:57:03;10.48;;;3.50;;
65244;SDS011;51846;48.692;2.382;2023-11-21T04:59:30;10.35;;;3.85;;
65244;SDS011;51846;48.692;2.382;2023-11-21T05:01:55;9.77;;;3.65;;
65244;SDS011;51846;48.692;2.382;2023-11-21T05:04:20;9.55;;;3.55;;
65244;SDS011;51846;48.692;2.382;2023-11-21T05:06:47;9.30;;;3.63;;
65244;SDS011;51846;48.692;2.382;2023-11-21T05:09:13;11.15;;;3.63;;
65244;SDS011;51846;48.692;2.382;2023-11-21T05:11:38;9.10;;;3.80;;
65244;SDS011;51846;48.692;2.382;2023-11-21T05:14:05;10.70;;;3.80;;
65244;SDS011;51846;48.692;2.382;2023-11-21T05:16:31;12.23;;;4.00;;
65244;SDS011;51846;48.692;2.382;2023-11-21T05:18:57;11.40;;;3.83;;
65244;SDS011;51846;48.692;2.382;2023-11-21T05:21:26;7.78;;;3.65;;
65244;SDS011;51846;48.692;2.382;2023-11-21T05:23:52;13.10;;;3.80;;
65244;SDS011;51846;48.692;2.382;2023-11-21T05:26:17;9.05;;;3.95;;
65244;SDS011;51846;48.692;2.382;2023-11-21T05:28:43;10.75;;;4.00;;
65244;SDS011;51846;48.692;2.382;2023-11-21T05:31:08;10.80;;;4.38;;
65244;SDS011;51846;48.692;2.382;2023-11-21T05:33:33;9.98;;;3.80;;
65244;SDS011;51846;48.692;2.382;2023-11-21T05:35:59;9.32;;;3.83;;
65244;SDS011;51846;48.692;2.382;2023-11-21T05:38:24;10.25;;;3.97;;
65244;SDS011;51846;48.692;2.382;2023-11-21T05:40:49;9.65;;;4.15;;
65244;SDS011;51846;48.692;2.382;2023-11-21T05:43:15;9.60;;;4.22;;
65244;SDS011;51846;48.692;2.382;2023-11-21T05:45:40;13.80;;;4.32;;
65244;SDS011;51846;48.692;2.382;2023-11-21T05:48:06;11.73;;;4.80;;
65244;SDS011;51846;48.692;2.382;2023-11-21T05:50:31;8.95;;;4.28;;
65244;SDS011;51846;48.692;2.382;2023-11-21T05:52:57;11.15;;;4.55;;
65244;SDS011;51846;48.692;2.382;2023-11-21T05:55:25;7.10;;;4.13;;
65244;SDS011;51846;48.692;2.382;2023-11-21T05:57:51;8.77;;;4.30;;
65244;SDS011;51846;48.692;2.382;2023-11-21T06:00:16;7.65;;;4.35;;
65244;SDS011;51846;48.692;2.382;2023-11-21T06:02:45;13.43;;;4.85;;
65244;SDS011;51846;48.692;2.382;2023-11-21T06:05:11;9.48;;;4.40;;
65244;SDS011;51846;48.692;2.382;2023-11-21T06:07:37;10.27;;;4.28;;
65244;SDS011;51846;48.692;2.382;2023-11-21T06:10:03;10.20;;;4.47;;
65244;SDS011;51846;48.692;2.382;2023-11-21T06:12:37;7.70;;;4.10;;
65244;SDS011;51846;48.692;2.382;2023-11-21T06:15:05;10.23;;;4.43;;
65244;SDS011;51846;48.692;2.382;2023-11-21T06:17:33;7.60;;;3.70;;
65244;SDS011;51846;48.692;2.382;2023-11-21T06:20:01;6.15;;;3.45;;
65244;SDS011;51846;48.692;2.382;2023-11-21T06:22:33;9.38;;;4.07;;
65244;SDS011;51846;48.692;2.382;2023-11-21T06:24:59;7.65;;;4.00;;
65244;SDS011;51846;48.692;2.382;2023-11-21T06:27:25;7.22;;;3.60;;
65244;SDS011;51846;48.692;2.382;2023-11-21T06:29:50;6.45;;;3.55;;
65244;SDS011;51846;48.692;2.382;2023-11-21T06:32:15;4.90;;;3.22;;
65244;SDS011;51846;48.692;2.382;2023-11-21T06:34:42;5.93;;;3.40;;
65244;SDS011;51846;48.692;2.382;2023-11-21T06:37:08;6.30;;;3.75;;
65244;SDS011;51846;48.692;2.382;2023-11-21T06:39:33;4.78;;;3.35;;
65244;SDS011;51846;48.692;2.382;2023-11-21T06:41:58;8.40;;;3.40;;
65244;SDS011;51846;48.692;2.382;2023-11-21T06:44:25;6.10;;;3.25;;
65244;SDS011;51846;48.692;2.382;2023-11-21T06:46:50;7.25;;;3.10;;
65244;SDS011;51846;48.692;2.382;2023-11-21T06:49:16;6.03;;;3.60;;
65244;SDS011;51846;48.692;2.382;2023-11-21T06:51:42;14.85;;;6.80;;
65244;SDS011;51846;48.692;2.382;2023-11-21T06:54:07;8.18;;;4.55;;
65244;SDS011;51846;48.692;2.382;2023-11-21T06:56:32;7.38;;;4.28;;
65244;SDS011;51846;48.692;2.382;2023-11-21T06:58:58;7.15;;;3.58;;
65244;SDS011;51846;48.692;2.382;2023-11-21T07:01:23;5.35;;;3.40;;
65244;SDS011;51846;48.692;2.382;2023-11-21T07:03:49;6.10;;;3.35;;
65244;SDS011;51846;48.692;2.382;2023-11-21T07:06:15;6.78;;;3.40;;
65244;SDS011;51846;48.692;2.382;2023-11-21T07:08:40;8.35;;;4.53;;
65244;SDS011;51846;48.692;2.382;2023-11-21T07:11:06;9.73;;;5.10;;
65244;SDS011;51846;48.692;2.382;2023-11-21T07:13:32;6.05;;;3.65;;
65244;SDS011;51846;48.692;2.382;2023-11-21T07:15:57;8.30;;;3.70;;
65244;SDS011;51846;48.692;2.382;2023-11-21T07:18:24;6.50;;;3.80;;
65244;SDS011;51846;48.692;2.382;2023-11-21T07:20:49;6.82;;;3.78;;
65244;SDS011;51846;48.692;2.382;2023-11-21T07:23:14;6.40;;;3.63;;
65244;SDS011;51846;48.692;2.382;2023-11-21T07:25:40;8.88;;;3.50;;
65244;SDS011;51846;48.692;2.382;2023-11-21T07:28:08;7.05;;;4.10;;
65244;SDS011;51846;48.692;2.382;2023-11-21T07:30:33;7.93;;;3.70;;
65244;SDS011;51846;48.692;2.382;2023-11-21T07:32:58;6.25;;;3.80;;
65244;SDS011;51846;48.692;2.382;2023-11-21T07:35:24;7.18;;;4.30;;
65244;SDS011;51846;48.692;2.382;2023-11-21T07:37:49;6.63;;;4.05;;
65244;SDS011;51846;48.692;2.382;2023-11-21T07:40:14;8.50;;;4.15;;
65244;SDS011;51846;48.692;2.382;2023-11-21T07:42:40;7.35;;;4.65;;
65244;SDS011;51846;48.692;2.382;2023-11-21T07:45:07;7.95;;;4.35;;
65244;SDS011;51846;48.692;2.382;2023-11-21T07:47:33;10.02;;;4.90;;
65244;SDS011;51846;48.692;2.382;2023-11-21T07:49:59;9.32;;;4.88;;
65244;SDS011;51846;48.692;2.382;2023-11-21T07:52:25;8.25;;;4.70;;
65244;SDS011;51846;48.692;2.382;2023-11-21T07:54:50;9.70;;;5.47;;
65244;SDS011;51846;48.692;2.382;2023-11-21T07:57:16;8.93;;;4.75;;
65244;SDS011;51846;48.692;2.382;2023-11-21T07:59:41;9.73;;;4.68;;
65244;SDS011;51846;48.692;2.382;2023-11-21T08:02:07;9.35;;;4.80;;
65244;SDS011;51846;48.692;2.382;2023-11-21T08:04:32;8.05;;;4.55;;
65244;SDS011;51846;48.692;2.382;2023-11-21T08:06:58;8.50;;;4.65;;
65244;SDS011;51846;48.692;2.382;2023-11-21T08:09:23;9.20;;;4.75;;
65244;SDS011;51846;48.692;2.382;2023-11-21T08:11:49;10.05;;;5.43;;
65244;SDS011;51846;48.692;2.382;2023-11-21T08:14:14;9.32;;;5.47;;
65244;SDS011;51846;48.692;2.382;2023-11-21T08:16:40;11.95;;;6.18;;
65244;SDS011;51846;48.692;2.382;2023-11-21T08:19:05;13.05;;;6.03;;
65244;SDS011;51846;48.692;2.382;2023-11-21T08:21:31;12.23;;;6.60;;
65244;SDS011;51846;48.692;2.382;2023-11-21T08:23:56;13.77;;;7.22;;
65244;SDS011;51846;48.692;2.382;2023-11-21T08:26:22;13.55;;;7.00;;
65244;SDS011;51846;48.692;2.382;2023-11-21T08:28:48;12.90;;;7.55;;
65244;SDS011;51846;48.692;2.382;2023-11-21T08:31:14;12.23;;;7.53;;
65244;SDS011;51846;48.692;2.382;2023-11-21T08:33:39;15.20;;;8.23;;
65244;SDS011;51846;48.692;2.382;2023-11-21T08:36:08;16.02;;;8.40;;
65244;SDS011;51846;48.692;2.382;2023-11-21T08:38:34;15.90;;;8.57;;
65244;SDS011;51846;48.692;2.382;2023-11-21T08:41:05;14.30;;;8.30;;
65244;SDS011;51846;48.692;2.382;2023-11-21T08:43:36;15.48;;;8.50;;
65244;SDS011;51846;48.692;2.382;2023-11-21T08:46:05;17.92;;;8.48;;
65244;SDS011;51846;48.692;2.382;2023-11-21T08:48:36;16.60;;;8.73;;
65244;SDS011;51846;48.692;2.382;2023-11-21T08:51:02;15.20;;;8.65;;
65244;SDS011;51846;48.692;2.382;2023-11-21T08:53:29;16.85;;;9.05;;
65244;SDS011;51846;48.692;2.382;2023-11-21T08:55:56;17.70;;;9.50;;
65244;SDS011;51846;48.692;2.382;2023-11-21T08:58:21;16.33;;;9.00;;
65244;SDS011;51846;48.692;2.382;2023-11-21T09:00:47;16.08;;;9.15;;
65244;SDS011;51846;48.692;2.382;2023-11-21T09:03:13;16.13;;;8.88;;
65244;SDS011;51846;48.692;2.382;2023-11-21T09:05:38;17.23;;;8.95;;
65244;SDS011;51846;48.692;2.382;2023-11-21T09:08:04;15.88;;;9.18;;
65244;SDS011;51846;48.692;2.382;2023-11-21T09:10:31;20.00;;;9.35;;
65244;SDS011;51846;48.692;2.382;2023-11-21T09:13:00;18.88;;;9.75;;
65244;SDS011;51846;48.692;2.382;2023-11-21T09:15:26;16.10;;;9.10;;
65244;SDS011;51846;48.692;2.382;2023-11-21T09:17:52;18.40;;;9.48;;
65244;SDS011;51846;48.692;2.382;2023-11-21T09:20:18;20.02;;;9.55;;
65244;SDS011;51846;48.692;2.382;2023-11-21T09:22:47;19.77;;;9.75;;
65244;SDS011;51846;48.692;2.382;2023-11-21T09:25:13;16.85;;;9.57;;
65244;SDS011;51846;48.692;2.382;2023-11-21T09:27:38;21.95;;;9.82;;
65244;SDS011;51846;48.692;2.382;2023-11-21T09:30:04;18.73;;;9.77;;
65244;SDS011;51846;48.692;2.382;2023-11-21T09:32:33;26.35;;;10.18;;
65244;SDS011;51846;48.692;2.382;2023-11-21T09:35:00;24.42;;;9.57;;
65244;SDS011;51846;48.692;2.382;2023-11-21T09:37:27;18.63;;;9.38;;
65244;SDS011;51846;48.692;2.382;2023-11-21T09:39:52;19.88;;;9.02;;
65244;SDS011;51846;48.692;2.382;2023-11-21T09:42:25;20.88;;;9.23;;
65244;SDS011;51846;48.692;2.382;2023-11-21T09:45:03;30.38;;;9.57;;
65244;SDS011;51846;48.692;2.382;2023-11-21T09:47:32;25.50;;;9.02;;
65244;SDS011;51846;48.692;2.382;2023-11-21T09:50:01;15.05;;;8.10;;
65244;SDS011;51846;48.692;2.382;2023-11-21T09:52:27;15.65;;;8.30;;
65244;SDS011;51846;48.692;2.382;2023-11-21T09:54:53;13.85;;;7.90;;
65244;SDS011;51846;48.692;2.382;2023-11-21T09:57:22;15.63;;;7.68;;
65244;SDS011;51846;48.692;2.382;2023-11-21T09:59:51;13.52;;;7.40;;
65244;SDS011;51846;48.692;2.382;2023-11-21T10:02:19;13.65;;;7.93;;
65244;SDS011;51846;48.692;2.382;2023-11-21T10:04:47;13.82;;;7.60;;
65244;SDS011;51846;48.692;2.382;2023-11-21T10:07:13;13.23;;;7.95;;
65244;SDS011;51846;48.692;2.382;2023-11-21T10:09:42;16.23;;;8.82;;
65244;SDS011;51846;48.692;2.382;2023-11-21T10:12:08;15.38;;;7.53;;
65244;SDS011;51846;48.692;2.382;2023-11-21T10:14:37;13.60;;;7.72;;
65244;SDS011;51846;48.692;2.382;2023-11-21T10:17:06;11.73;;;7.47;;
65244;SDS011;51846;48.692;2.382;2023-11-21T10:19:33;13.15;;;6.97;;
65244;SDS011;51846;48.692;2.382;2023-11-21T10:22:01;13.65;;;6.65;;
65244;SDS011;51846;48.692;2.382;2023-11-21T10:24:28;11.73;;;6.55;;
65244;SDS011;51846;48.692;2.382;2023-11-21T10:26:54;11.40;;;6.40;;
65244;SDS011;51846;48.692;2.382;2023-11-21T10:29:19;18.25;;;7.18;;
65244;SDS011;51846;48.692;2.382;2023-11-21T10:31:48;11.50;;;5.68;;
65244;SDS011;51846;48.692;2.382;2023-11-21T10:34:15;8.95;;;5.07;;
65244;SDS011;51846;48.692;2.382;2023-11-21T10:36:42;9.52;;;4.93;;
65244;SDS011;51846;48.692;2.382;2023-11-21T10:39:08;9.02;;;4.65;;
65244;SDS011;51846;48.692;2.382;2023-11-21T10:41:34;8.75;;;4.93;;
65244;SDS011;51846;48.692;2.382;2023-11-21T10:44:00;8.60;;;4.53;;
65244;SDS011;51846;48.692;2.382;2023-11-21T10:46:29;8.05;;;4.68;;
65244;SDS011;51846;48.692;2.382;2023-11-21T10:48:55;9.65;;;4.60;;
65244;SDS011;51846;48.692;2.382;2023-11-21T10:51:22;9.43;;;4.00;;
65244;SDS011;51846;48.692;2.382;2023-11-21T10:53:49;6.90;;;3.97;;
65244;SDS011;51846;48.692;2.382;2023-11-21T10:56:16;7.75;;;4.55;;
65244;SDS011;51846;48.692;2.382;2023-11-21T10:58:45;9.95;;;5.13;;
65244;SDS011;51846;48.692;2.382;2023-11-21T11:01:10;7.68;;;4.15;;
65244;SDS011;51846;48.692;2.382;2023-11-21T11:03:39;8.57;;;4.07;;
65244;SDS011;51846;48.692;2.382;2023-11-21T11:06:05;10.98;;;4.18;;
65244;SDS011;51846;48.692;2.382;2023-11-21T11:08:36;7.72;;;3.72;;
65244;SDS011;51846;48.692;2.382;2023-11-21T11:11:07;6.97;;;4.13;;
65244;SDS011;51846;48.692;2.382;2023-11-21T11:13:32;7.03;;;3.83;;
65244;SDS011;51846;48.692;2.382;2023-11-21T11:15:59;6.40;;;3.80;;
65244;SDS011;51846;48.692;2.382;2023-11-21T11:18:29;11.43;;;3.92;;
65244;SDS011;51846;48.692;2.382;2023-11-21T11:20:56;6.40;;;3.63;;
65244;SDS011;51846;48.692;2.382;2023-11-21T11:23:39;6.03;;;3.55;;
65244;SDS011;51846;48.692;2.382;2023-11-21T11:34:28;6.30;;;2.70;;
65244;SDS011;51846;48.692;2.382;2023-11-21T11:37:01;4.82;;;2.80;;
65244;SDS011;51846;48.692;2.382;2023-11-21T11:39:35;4.03;;;2.45;;
65244;SDS011;51846;48.692;2.382;2023-11-21T11:42:03;6.80;;;2.80;;
65244;SDS011;51846;48.692;2.382;2023-11-21T11:47:15;5.20;;;2.65;;
65244;SDS011;51846;48.692;2.382;2023-11-21T11:50:01;5.05;;;2.58;;
65244;SDS011;51846;48.692;2.382;2023-11-21T11:52:51;7.40;;;2.60;;
65244;SDS011;51846;48.692;2.382;2023-11-21T11:55:36;4.25;;;2.60;;
65244;SDS011;51846;48.692;2.382;2023-11-21T11:58:04;3.83;;;2.30;;
65244;SDS011;51846;48.692;2.382;2023-11-21T12:00:34;4.53;;;2.20;;
65244;SDS011;51846;48.692;2.382;2023-11-21T12:03:03;5.07;;;2.28;;
65244;SDS011;51846;48.692;2.382;2023-11-21T12:05:31;4.65;;;2.42;;
65244;SDS011;51846;48.692;2.382;2023-11-21T12:08:03;4.07;;;2.40;;
65244;SDS011;51846;48.692;2.382;2023-11-21T12:10:29;4.38;;;2.40;;
65244;SDS011;51846;48.692;2.382;2023-11-21T12:13:00;5.38;;;2.58;;
65244;SDS011;51846;48.692;2.382;2023-11-21T12:15:32;4.60;;;2.75;;
65244;SDS011;51846;48.692;2.382;2023-11-21T12:17:58;5.13;;;2.50;;
65244;SDS011;51846;48.692;2.382;2023-11-21T12:20:24;5.05;;;2.85;;
65244;SDS011;51846;48.692;2.382;2023-11-21T12:22:57;4.65;;;2.53;;
65244;SDS011;51846;48.692;2.382;2023-11-21T12:25:28;4.30;;;2.15;;
65244;SDS011;51846;48.692;2.382;2023-11-21T12:27:56;4.05;;;2.40;;
65244;SDS011;51846;48.692;2.382;2023-11-21T12:30:22;4.95;;;2.40;;
65244;SDS011;51846;48.692;2.382;2023-11-21T12:32:52;4.40;;;2.47;;
65244;SDS011;51846;48.692;2.382;2023-11-21T12:35:21;4.03;;;2.42;;
65244;SDS011;51846;48.692;2.382;2023-11-21T12:37:49;4.70;;;2.40;;
65244;SDS011;51846;48.692;2.382;2023-11-21T12:40:15;6.63;;;2.50;;
65244;SDS011;51846;48.692;2.382;2023-11-21T12:42:42;4.53;;;2.53;;
65244;SDS011;51846;48.692;2.382;2023-11-21T12:45:09;6.43;;;2.80;;
65244;SDS011;51846;48.692;2.382;2023-11-21T12:47:40;4.25;;;2.55;;
65244;SDS011;51846;48.692;2.382;2023-11-21T12:50:07;4.15;;;2.60;;
65244;SDS011;51846;48.692;2.382;2023-11-21T12:52:39;5.40;;;2.70;;
65244;SDS011;51846;48.692;2.382;2023-11-21T12:55:15;4.22;;;2.70;;
65244;SDS011;51846;48.692;2.382;2023-11-21T12:57:42;5.20;;;2.65;;
65244;SDS011;51846;48.692;2.382;2023-11-21T13:00:08;5.75;;;2.60;;
65244;SDS011;51846;48.692;2.382;2023-11-21T13:02:38;5.25;;;2.88;;
65244;SDS011;51846;48.692;2.382;2023-11-21T13:05:07;5.15;;;3.10;;
65244;SDS011;51846;48.692;2.382;2023-11-21T13:07:43;6.50;;;3.10;;
65244;SDS011;51846;48.692;2.382;2023-11-21T13:10:12;4.17;;;2.43;;
65244;SDS011;51846;48.692;2.382;2023-11-21T13:12:44;4.55;;;2.80;;
65244;SDS011;51846;48.692;2.382;2023-11-21T13:17:42;4.47;;;2.63;;
65244;SDS011;51846;48.692;2.382;2023-11-21T13:20:07;4.18;;;2.45;;
65244;SDS011;51846;48.692;2.382;2023-11-21T13:22:44;5.50;;;2.40;;
65244;SDS011;51846;48.692;2.382;2023-11-21T13:25:13;4.53;;;2.42;;
65244;SDS011;51846;48.692;2.382;2023-11-21T13:27:40;4.40;;;2.55;;
65244;SDS011;51846;48.692;2.382;2023-11-21T13:30:08;4.80;;;2.70;;
65244;SDS011;51846;48.692;2.382;2023-11-21T13:32:33;3.85;;;2.67;;
65244;SDS011;51846;48.692;2.382;2023-11-21T13:34:59;5.57;;;2.80;;
65244;SDS011;51846;48.692;2.382;2023-11-21T13:37:24;4.00;;;2.50;;
65244;SDS011;51846;48.692;2.382;2023-11-21T13:39:53;6.43;;;3.00;;
65244;SDS011;51846;48.692;2.382;2023-11-21T13:42:19;4.07;;;2.80;;
65244;SDS011;51846;48.692;2.382;2023-11-21T13:44:48;5.25;;;2.70;;
65244;SDS011;51846;48.692;2.382;2023-11-21T13:47:14;5.13;;;2.72;;
65244;SDS011;51846;48.692;2.382;2023-11-21T13:49:39;5.72;;;2.75;;
65244;SDS011;51846;48.692;2.382;2023-11-21T13:52:07;5.47;;;2.80;;
65244;SDS011;51846;48.692;2.382;2023-11-21T13:54:40;5.22;;;3.20;;
65244;SDS011;51846;48.692;2.382;2023-11-21T13:57:05;4.93;;;3.00;;
65244;SDS011;51846;48.692;2.382;2023-11-21T13:59:31;4.53;;;2.95;;
65244;SDS011;51846;48.692;2.382;2023-11-21T14:01:57;4.72;;;3.00;;
65244;SDS011;51846;48.692;2.382;2023-11-21T14:04:25;5.93;;;2.88;;
65244;SDS011;51846;48.692;2.382;2023-11-21T14:06:57;6.85;;;3.30;;
65244;SDS011;51846;48.692;2.382;2023-11-21T14:09:25;4.90;;;2.90;;
65244;SDS011;51846;48.692;2.382;2023-11-21T14:11:57;4.68;;;2.88;;
65244;SDS011;51846;48.692;2.382;2023-11-21T14:14:24;5.32;;;3.05;;
65244;SDS011;51846;48.692;2.382;2023-11-21T14:16:51;5.75;;;3.00;;
65244;SDS011;51846;48.692;2.382;2023-11-21T14:19:17;5.00;;;3.00;;
65244;SDS011;51846;48.692;2.382;2023-11-21T14:21:43;4.00;;;2.80;;
65244;SDS011;51846;48.692;2.382;2023-11-21T14:24:13;5.32;;;2.67;;
65244;SDS011;51846;48.692;2.382;2023-11-21T14:26:42;3.97;;;2.50;;
65244;SDS011;51846;48.692;2.382;2023-11-21T14:29:10;4.35;;;2.35;;
65244;SDS011;51846;48.692;2.382;2023-11-21T14:31:39;4.57;;;2.20;;
65244;SDS011;51846;48.692;2.382;2023-11-21T14:34:04;4.60;;;2.20;;
65244;SDS011;51846;48.692;2.382;2023-11-21T14:36:31;6.15;;;2.35;;
65244;SDS011;51846;48.692;2.382;2023-11-21T14:38:57;3.70;;;2.28;;
65244;SDS011;51846;48.692;2.382;2023-11-21T14:41:22;4.00;;;2.08;;
65244;SDS011;51846;48.692;2.382;2023-11-21T14:43:52;4.63;;;2.10;;
65244;SDS011;51846;48.692;2.382;2023-11-21T14:46:19;3.97;;;2.10;;
65244;SDS011;51846;48.692;2.382;2023-11-21T14:48:44;4.72;;;2.33;;
65244;SDS011;51846;48.692;2.382;2023-11-21T14:51:24;3.47;;;2.20;;
65244;SDS011;51846;48.692;2.382;2023-11-21T14:53:56;5.38;;;2.20;;
65244;SDS011;51846;48.692;2.382;2023-11-21T14:56:26;3.63;;;2.40;;